Time,TemperatureF,DewpointF,PressureIn,WindDirection,WindDirectionDegrees,WindSpeedMPH,WindSpeedGustMPH,Humidity,HourlyPrecipIn,Conditions,Clouds,dailyrainin,SoftwareType,DateUTC
2013-06-15 00:02:00,51.0,48.0,29.64,NE,36,0.0,1.0,90,0.00,,,0.00,,2013-06-15 04:02:00,
2013-06-15 00:12:00,51.0,48.0,29.64,NE,36,0.0,1.0,90,0.00,,,0.00,,2013-06-15 04:12:00,
2013-06-15 00:22:00,50.0,47.0,29.64,NE,36,0.0,0.0,91,0.00,,,0.00,,2013-06-15 04:22:00,
2013-06-15 00:34:00,50.0,47.0,29.64,NE,36,0.0,0.0,91,0.00,,,0.00,,2013-06-15 04:34:00,
2013-06-15 00:43:00,50.0,48.0,29.64,NE,36,0.0,0.0,92,0.00,,,0.00,,2013-06-15 04:43:00,
2013-06-15 00:54:00,50.0,48.0,29.64,NE,36,0.0,0.0,92,0.00,,,0.00,,2013-06-15 04:54:00,
2013-06-15 01:02:00,49.0,47.0,29.64,NE,36,0.0,2.0,93,0.00,,,0.00,,2013-06-15 05:02:00,
2013-06-15 01:12:00,48.0,46.0,29.65,NE,36,0.0,2.0,94,0.00,,,0.00,,2013-06-15 05:12:00,
2013-06-15 01:22:00,48.0,46.0,29.65,NE,36,0.0,1.0,94,0.00,,,0.00,,2013-06-15 05:22:00,
2013-06-15 01:34:00,48.0,46.0,29.65,NE,36,0.0,1.0,94,0.00,,,0.00,,2013-06-15 05:34:00,
2013-06-15 01:43:00,48.0,47.0,29.65,NE,36,0.0,2.0,95,0.00,,,0.00,,2013-06-15 05:43:00,
2013-06-15 01:52:00,48.0,47.0,29.65,NE,36,0.0,2.0,95,0.00,,,0.00,,2013-06-15 05:52:00,
2013-06-15 02:02:00,48.0,47.0,29.65,NE,36,0.0,2.0,95,0.00,,,0.00,,2013-06-15 06:02:00,
2013-06-15 02:12:00,47.0,46.0,29.65,NE,36,1.0,2.0,96,0.00,,,0.00,,2013-06-15 06:12:00,
2013-06-15 02:24:00,47.0,46.0,29.65,NE,36,0.0,2.0,96,0.00,,,0.00,,2013-06-15 06:24:00,
2013-06-15 02:33:00,47.0,46.0,29.65,NE,36,0.0,2.0,96,0.00,,,0.00,,2013-06-15 06:33:00,
2013-06-15 02:43:00,47.0,46.0,29.65,NE,36,0.0,0.0,96,0.00,,,0.00,,2013-06-15 06:43:00,
2013-06-15 02:53:00,47.0,46.0,29.65,NE,36,0.0,0.0,96,0.00,,,0.00,,2013-06-15 06:53:00,
2013-06-15 03:01:00,47.0,46.0,29.65,NE,36,0.0,0.0,96,0.00,,,0.00,,2013-06-15 07:01:00,
2013-06-15 03:11:00,47.0,46.0,29.65,NE,36,0.0,0.0,96,0.00,,,0.00,,2013-06-15 07:11:00,
2013-06-15 03:23:00,47.0,46.0,29.65,NE,36,0.0,2.0,96,0.00,,,0.00,,2013-06-15 07:23:00,
2013-06-15 03:33:00,47.0,46.0,29.65,NE,36,0.0,2.0,96,0.00,,,0.00,,2013-06-15 07:33:00,
2013-06-15 03:43:00,46.0,45.0,29.65,NE,36,0.0,0.0,96,0.00,,,0.00,,2013-06-15 07:43:00,
2013-06-15 03:53:00,46.0,45.0,29.65,NE,36,0.0,0.0,96,0.00,,,0.00,,2013-06-15 07:53:00,
2013-06-15 04:02:00,46.0,45.0,29.65,NE,36,0.0,0.0,97,0.00,,,0.00,,2013-06-15 08:02:00,
2013-06-15 04:11:00,46.0,45.0,29.66,WNW,300,0.0,2.0,97,0.00,,,0.00,,2013-06-15 08:11:00,
2013-06-15 04:22:00,46.0,45.0,29.66,WNW,300,0.0,2.0,97,0.00,,,0.00,,2013-06-15 08:22:00,
2013-06-15 04:33:00,46.0,45.0,29.66,WNW,300,0.0,1.0,97,0.00,,,0.00,,2013-06-15 08:33:00,
2013-06-15 04:43:00,47.0,46.0,29.66,WNW,300,0.0,2.0,97,0.00,,,0.00,,2013-06-15 08:43:00,
2013-06-15 04:53:00,47.0,46.0,29.67,WNW,300,0.0,0.0,97,0.00,,,0.00,,2013-06-15 08:53:00,
2013-06-15 05:02:00,47.0,46.0,29.67,WNW,300,0.0,0.0,97,0.00,,,0.00,,2013-06-15 09:02:00,
2013-06-15 05:12:00,47.0,46.0,29.67,WNW,300,0.0,2.0,97,0.00,,,0.00,,2013-06-15 09:12:00,
2013-06-15 05:22:00,47.0,46.0,29.67,WNW,300,0.0,2.0,97,0.00,,,0.00,,2013-06-15 09:22:00,
2013-06-15 05:33:00,48.0,47.0,29.67,WNW,300,0.0,2.0,97,0.00,,,0.00,,2013-06-15 09:33:00,
2013-06-15 05:43:00,48.0,47.0,29.68,WNW,300,0.0,1.0,97,0.00,,,0.00,,2013-06-15 09:43:00,
2013-06-15 05:52:00,48.0,47.0,29.68,WNW,300,0.0,1.0,97,0.00,,,0.00,,2013-06-15 09:52:00,
2013-06-15 06:02:00,48.0,47.0,29.68,WNW,300,0.0,2.0,97,0.01,,,0.01,,2013-06-15 10:02:00,
2013-06-15 06:12:00,49.0,48.0,29.69,WNW,300,0.0,2.0,97,0.01,,,0.01,,2013-06-15 10:12:00,
2013-06-15 06:23:00,49.0,48.0,29.69,WNW,300,0.0,2.0,97,0.01,,,0.01,,2013-06-15 10:23:00,
2013-06-15 06:34:00,51.0,50.0,29.70,WNW,288,0.0,2.0,98,0.01,,,0.01,,2013-06-15 10:34:00,
2013-06-15 06:44:00,54.0,52.0,29.70,West,264,0.0,2.0,94,0.01,,,0.01,,2013-06-15 10:44:00,
2013-06-15 06:53:00,54.0,52.0,29.70,West,264,0.0,2.0,94,0.01,,,0.01,,2013-06-15 10:53:00,
2013-06-15 07:02:00,55.0,51.0,29.72,SSW,204,0.0,4.0,87,0.00,,,0.01,,2013-06-15 11:02:00,
2013-06-15 07:12:00,57.0,50.0,29.72,NNE,15,0.0,3.0,78,0.00,,,0.01,,2013-06-15 11:12:00,
2013-06-15 07:22:00,59.0,50.0,29.72,NNE,13,0.0,5.0,72,0.00,,,0.01,,2013-06-15 11:22:00,
2013-06-15 07:33:00,59.0,50.0,29.72,NNE,13,0.0,5.0,72,0.00,,,0.01,,2013-06-15 11:33:00,
2013-06-15 07:43:00,60.0,49.0,29.73,WSW,249,0.0,4.0,68,0.00,,,0.01,,2013-06-15 11:43:00,
2013-06-15 07:53:00,60.0,49.0,29.73,WSW,249,0.0,4.0,68,0.00,,,0.01,,2013-06-15 11:53:00,
2013-06-15 08:02:00,61.0,49.0,29.73,West,266,1.0,8.0,65,0.00,,,0.01,,2013-06-15 12:02:00,
2013-06-15 08:12:00,62.0,48.0,29.73,NNW,348,2.0,7.0,61,0.00,,,0.01,,2013-06-15 12:12:00,
2013-06-15 08:22:00,62.0,48.0,29.73,NNW,348,2.0,7.0,61,0.00,,,0.01,,2013-06-15 12:22:00,
2013-06-15 08:33:00,62.0,48.0,29.73,NNW,348,6.0,10.0,61,0.00,,,0.01,,2013-06-15 12:33:00,
2013-06-15 08:43:00,62.0,47.0,29.74,NW,323,4.0,10.0,59,0.00,,,0.01,,2013-06-15 12:43:00,
2013-06-15 08:52:00,62.0,47.0,29.74,NW,323,4.0,10.0,59,0.00,,,0.01,,2013-06-15 12:52:00,
2013-06-15 09:02:00,64.0,50.0,29.74,WNW,290,3.0,9.0,60,0.00,,,0.01,,2013-06-15 13:02:00,
2013-06-15 09:11:00,64.0,48.0,29.74,WNW,303,3.0,8.0,56,0.00,,,0.01,,2013-06-15 13:11:00,
2013-06-15 09:22:00,64.0,48.0,29.74,WNW,303,3.0,8.0,56,0.00,,,0.01,,2013-06-15 13:22:00,
2013-06-15 09:32:00,65.0,49.0,29.73,NNW,335,5.0,12.0,57,0.00,,,0.01,,2013-06-15 13:32:00,
2013-06-15 09:44:00,66.0,48.0,29.74,NNW,337,6.0,11.0,52,0.00,,,0.01,,2013-06-15 13:44:00,
2013-06-15 09:53:00,66.0,48.0,29.74,NNW,332,7.0,12.0,52,0.00,,,0.01,,2013-06-15 13:53:00,
2013-06-15 10:02:00,66.0,48.0,29.74,NNW,332,7.0,12.0,52,0.00,,,0.01,,2013-06-15 14:02:00,
2013-06-15 10:12:00,67.0,47.0,29.74,SSW,193,4.0,9.0,49,0.00,,,0.01,,2013-06-15 14:12:00,
2013-06-15 10:22:00,67.0,48.0,29.74,NNW,334,9.0,15.0,51,0.00,,,0.01,,2013-06-15 14:22:00,
2013-06-15 10:34:00,67.0,48.0,29.74,NNW,334,9.0,15.0,51,0.00,,,0.01,,2013-06-15 14:34:00,
2013-06-15 10:43:00,68.0,49.0,29.75,NNE,15,7.0,15.0,51,0.00,,,0.01,,2013-06-15 14:43:00,
2013-06-15 10:53:00,68.0,48.0,29.75,ENE,76,3.0,13.0,49,0.00,,,0.01,,2013-06-15 14:53:00,
2013-06-15 11:02:00,68.0,48.0,29.75,ENE,76,3.0,13.0,49,0.00,,,0.01,,2013-06-15 15:02:00,
2013-06-15 11:12:00,68.0,48.0,29.75,NW,312,2.0,17.0,49,0.00,,,0.01,,2013-06-15 15:12:00,
2013-06-15 11:22:00,68.0,48.0,29.75,NW,312,2.0,17.0,49,0.00,,,0.01,,2013-06-15 15:22:00,
2013-06-15 11:33:00,69.0,46.0,29.75,NW,325,4.0,11.0,44,0.00,,,0.01,,2013-06-15 15:33:00,
2013-06-15 11:43:00,69.0,47.0,29.74,NNE,28,4.0,14.0,45,0.00,,,0.01,,2013-06-15 15:43:00,
2013-06-15 11:53:00,70.0,48.0,29.74,SSW,198,3.0,13.0,46,0.00,,,0.01,,2013-06-15 15:53:00,
2013-06-15 12:02:00,70.0,48.0,29.74,SSW,198,3.0,13.0,46,0.00,,,0.01,,2013-06-15 16:02:00,
2013-06-15 12:12:00,70.0,48.0,29.74,NNW,342,6.0,14.0,46,0.00,,,0.01,,2013-06-15 16:12:00,
2013-06-15 12:22:00,70.0,45.0,29.74,NNE,25,3.0,7.0,40,0.00,,,0.01,,2013-06-15 16:22:00,
2013-06-15 12:33:00,70.0,45.0,29.74,NNE,25,3.0,7.0,40,0.00,,,0.01,,2013-06-15 16:33:00,
2013-06-15 12:43:00,71.0,47.0,29.73,WSW,254,1.0,10.0,42,0.00,,,0.01,,2013-06-15 16:43:00,
2013-06-15 12:53:00,72.0,45.0,29.74,North,350,3.0,14.0,38,0.00,,,0.01,,2013-06-15 16:53:00,
2013-06-15 13:02:00,72.0,45.0,29.74,North,350,3.0,14.0,38,0.00,,,0.01,,2013-06-15 17:02:00,
2013-06-15 13:12:00,72.0,44.0,29.74,West,271,4.0,10.0,37,0.00,,,0.01,,2013-06-15 17:12:00,
2013-06-15 13:22:00,72.0,42.0,29.74,North,360,6.0,21.0,34,0.00,,,0.01,,2013-06-15 17:22:00,
2013-06-15 13:32:00,72.0,42.0,29.74,North,360,6.0,21.0,34,0.00,,,0.01,,2013-06-15 17:32:00,
2013-06-15 13:43:00,73.0,46.0,29.73,WNW,302,1.0,12.0,38,0.00,,,0.01,,2013-06-15 17:43:00,
2013-06-15 13:52:00,74.0,45.0,29.73,ENE,67,3.0,12.0,35,0.00,,,0.01,,2013-06-15 17:52:00,
2013-06-15 14:01:00,74.0,45.0,29.73,ENE,67,3.0,12.0,35,0.00,,,0.01,,2013-06-15 18:01:00,
2013-06-15 14:12:00,72.0,44.0,29.73,SSE,163,0.0,8.0,37,0.00,,,0.01,,2013-06-15 18:12:00,
2013-06-15 14:33:00,71.0,50.0,29.73,SSE,159,0.0,7.0,47,0.00,,,0.01,,2013-06-15 18:33:00,
2013-06-15 14:43:00,74.0,46.0,29.73,West,261,4.0,11.0,37,0.00,,,0.01,,2013-06-15 18:43:00,
2013-06-15 14:53:00,74.0,45.0,29.73,NNW,332,3.0,11.0,35,0.00,,,0.01,,2013-06-15 18:53:00,
2013-06-15 15:02:00,74.0,45.0,29.73,NNW,332,3.0,11.0,35,0.00,,,0.01,,2013-06-15 19:02:00,
2013-06-15 15:12:00,72.0,46.0,29.73,West,280,1.0,11.0,39,0.00,,,0.01,,2013-06-15 19:12:00,
2013-06-15 15:22:00,74.0,45.0,29.73,SSW,201,4.0,10.0,35,0.00,,,0.01,,2013-06-15 19:22:00,
2013-06-15 15:33:00,74.0,45.0,29.73,SSW,201,4.0,10.0,35,0.00,,,0.01,,2013-06-15 19:33:00,
2013-06-15 15:43:00,73.0,45.0,29.72,SSE,160,2.0,10.0,37,0.00,,,0.01,,2013-06-15 19:43:00,
2013-06-15 15:52:00,74.0,43.0,29.72,NNW,337,4.0,10.0,33,0.00,,,0.01,,2013-06-15 19:52:00,
2013-06-15 16:02:00,74.0,43.0,29.72,NNW,337,4.0,10.0,33,0.00,,,0.01,,2013-06-15 20:02:00,
2013-06-15 16:12:00,74.0,47.0,29.72,South,191,2.0,7.0,39,0.00,,,0.01,,2013-06-15 20:12:00,
2013-06-15 16:22:00,74.0,45.0,29.72,South,173,3.0,10.0,36,0.00,,,0.01,,2013-06-15 20:22:00,
2013-06-15 16:33:00,74.0,45.0,29.72,South,173,3.0,10.0,36,0.00,,,0.01,,2013-06-15 20:33:00,
2013-06-15 16:43:00,75.0,49.0,29.71,SSW,195,2.0,7.0,40,0.00,,,0.01,,2013-06-15 20:43:00,
2013-06-15 16:53:00,75.0,49.0,29.71,SSW,195,2.0,7.0,40,0.00,,,0.01,,2013-06-15 20:53:00,
2013-06-15 17:02:00,75.0,45.0,29.71,WSW,237,5.0,12.0,34,0.00,,,0.01,,2013-06-15 21:02:00,
2013-06-15 17:12:00,74.0,45.0,29.71,WSW,244,1.0,12.0,35,0.00,,,0.01,,2013-06-15 21:12:00,
2013-06-15 17:22:00,73.0,45.0,29.71,South,188,3.0,7.0,37,0.00,,,0.01,,2013-06-15 21:22:00,
2013-06-15 17:34:00,73.0,45.0,29.71,South,188,3.0,7.0,37,0.00,,,0.01,,2013-06-15 21:34:00,
2013-06-15 17:42:00,73.0,46.0,29.71,WSW,252,0.0,6.0,38,0.00,,,0.01,,2013-06-15 21:42:00,
2013-06-15 17:52:00,74.0,44.0,29.71,SW,231,3.0,11.0,34,0.00,,,0.01,,2013-06-15 21:52:00,
2013-06-15 18:01:00,74.0,44.0,29.71,SW,231,3.0,11.0,34,0.00,,,0.01,,2013-06-15 22:01:00,
2013-06-15 18:11:00,74.0,45.0,29.71,SW,217,3.0,9.0,35,0.00,,,0.01,,2013-06-15 22:11:00,
2013-06-15 18:22:00,73.0,46.0,29.72,South,180,1.0,7.0,38,0.00,,,0.01,,2013-06-15 22:22:00,
2013-06-15 18:33:00,73.0,46.0,29.72,South,180,1.0,7.0,38,0.00,,,0.01,,2013-06-15 22:33:00,
2013-06-15 18:43:00,72.0,45.0,29.72,West,281,4.0,9.0,38,0.00,,,0.01,,2013-06-15 22:43:00,
2013-06-15 18:53:00,72.0,46.0,29.72,SSW,198,1.0,9.0,39,0.00,,,0.01,,2013-06-15 22:53:00,
2013-06-15 19:02:00,72.0,46.0,29.72,SSW,198,1.0,9.0,39,0.00,,,0.01,,2013-06-15 23:02:00,
2013-06-15 19:12:00,71.0,44.0,29.73,SSW,212,2.0,9.0,38,0.00,,,0.01,,2013-06-15 23:12:00,
2013-06-15 19:22:00,71.0,44.0,29.73,SSW,212,2.0,9.0,38,0.00,,,0.01,,2013-06-15 23:22:00,
2013-06-15 19:33:00,70.0,45.0,29.73,WNW,293,0.0,3.0,41,0.00,,,0.01,,2013-06-15 23:33:00,
2013-06-15 19:43:00,69.0,44.0,29.73,West,271,0.0,6.0,40,0.00,,,0.01,,2013-06-15 23:43:00,
2013-06-15 19:53:00,69.0,45.0,29.74,SSW,193,0.0,2.0,42,0.00,,,0.01,,2013-06-15 23:53:00,
2013-06-15 20:02:00,69.0,45.0,29.74,SSW,193,0.0,2.0,42,0.00,,,0.01,,2013-06-16 00:02:00,
2013-06-15 20:12:00,67.0,45.0,29.74,SSW,193,0.0,1.0,45,0.00,,,0.01,,2013-06-16 00:12:00,
2013-06-15 20:22:00,65.0,45.0,29.74,SSW,193,0.0,2.0,49,0.00,,,0.01,,2013-06-16 00:22:00,
2013-06-15 20:34:00,65.0,45.0,29.74,SSW,193,0.0,2.0,49,0.00,,,0.01,,2013-06-16 00:34:00,
2013-06-15 20:43:00,63.0,46.0,29.74,SSW,192,0.0,1.0,53,0.00,,,0.01,,2013-06-16 00:43:00,
2013-06-15 21:02:00,62.0,47.0,29.75,SSW,192,0.0,1.0,58,0.00,,,0.01,,2013-06-16 01:02:00,
2013-06-15 21:22:00,59.0,46.0,29.77,SSW,192,0.0,0.0,63,0.00,,,0.01,,2013-06-16 01:22:00,
2013-06-15 21:33:00,59.0,46.0,29.77,SSW,192,0.0,0.0,63,0.00,,,0.01,,2013-06-16 01:33:00,
2013-06-15 21:42:00,58.0,47.0,29.77,SSW,192,0.0,2.0,67,0.00,,,0.01,,2013-06-16 01:42:00,
2013-06-15 21:53:00,58.0,49.0,29.78,SSW,192,0.0,3.0,71,0.00,,,0.01,,2013-06-16 01:53:00,
2013-06-15 22:02:00,58.0,49.0,29.78,SSW,192,0.0,3.0,71,0.00,,,0.01,,2013-06-16 02:02:00,
2013-06-15 22:12:00,58.0,50.0,29.78,SSW,192,0.0,2.0,74,0.00,,,0.01,,2013-06-16 02:12:00,
2013-06-15 22:22:00,57.0,49.0,29.78,SSW,192,0.0,0.0,75,0.00,,,0.01,,2013-06-16 02:22:00,
2013-06-15 22:33:00,57.0,49.0,29.78,SSW,192,0.0,0.0,75,0.00,,,0.01,,2013-06-16 02:33:00,
2013-06-15 22:43:00,57.0,50.0,29.78,SSW,192,0.0,0.0,77,0.00,,,0.01,,2013-06-16 02:43:00,
2013-06-15 22:53:00,55.0,49.0,29.78,SSW,192,0.0,0.0,80,0.00,,,0.01,,2013-06-16 02:53:00,
2013-06-15 23:02:00,55.0,49.0,29.78,SSW,192,0.0,0.0,80,0.00,,,0.01,,2013-06-16 03:02:00,
2013-06-15 23:12:00,55.0,49.0,29.78,SSW,192,0.0,0.0,81,0.00,,,0.01,,2013-06-16 03:12:00,
2013-06-15 23:22:00,55.0,50.0,29.78,SSW,192,0.0,1.0,82,0.00,,,0.01,,2013-06-16 03:22:00,
2013-06-15 23:34:00,55.0,50.0,29.78,SSW,192,0.0,1.0,82,0.00,,,0.01,,2013-06-16 03:34:00,
2013-06-15 23:43:00,54.0,49.0,29.78,SSW,192,0.0,0.0,82,0.00,,,0.01,,2013-06-16 03:43:00,
2013-06-15 23:53:00,54.0,49.0,29.79,SSW,192,0.0,1.0,84,0.00,,,0.01,,2013-06-16 03:53:00,